sensor_id;sensor_type;location;lat;lon;timestamp;temperature;humidity
65239;SHT30;51827;51.186;6.926;2023-02-14T00:00:21;19.54;48.73
65239;SHT30;51827;51.186;6.926;2023-02-14T00:01:21;19.54;48.78
65239;SHT30;51827;51.186;6.926;2023-02-14T00:02:21;19.54;48.73
65239;SHT30;51827;51.186;6.926;2023-02-14T00:03:22;19.56;48.69
65239;SHT30;51827;51.186;6.926;2023-02-14T00:04:22;19.54;48.72
65239;SHT30;51827;51.186;6.926;2023-02-14T00:05:22;19.57;48.75
65239;SHT30;51827;51.186;6.926;2023-02-14T00:06:23;19.54;48.70
65239;SHT30;51827;51.186;6.926;2023-02-14T00:07:23;19.53;48.65
65239;SHT30;51827;51.186;6.926;2023-02-14T00:08:23;19.56;48.72
65239;SHT30;51827;51.186;6.926;2023-02-14T00:09:23;19.54;48.64
65239;SHT30;51827;51.186;6.926;2023-02-14T00:10:24;19.56;48.68
65239;SHT30;51827;51.186;6.926;2023-02-14T00:11:24;19.52;48.68
65239;SHT30;51827;51.186;6.926;2023-02-14T00:12:24;19.56;48.67
65239;SHT30;51827;51.186;6.926;2023-02-14T00:13:25;19.54;48.64
65239;SHT30;51827;51.186;6.926;2023-02-14T00:14:25;19.54;48.69
65239;SHT30;51827;51.186;6.926;2023-02-14T00:15:25;19.52;48.73
65239;SHT30;51827;51.186;6.926;2023-02-14T00:16:25;19.53;48.69
65239;SHT30;51827;51.186;6.926;2023-02-14T00:17:26;19.53;48.64
65239;SHT30;51827;51.186;6.926;2023-02-14T00:18:27;19.52;48.69
65239;SHT30;51827;51.186;6.926;2023-02-14T00:19:27;19.52;48.68
65239;SHT30;51827;51.186;6.926;2023-02-14T00:20:27;19.52;48.69
65239;SHT30;51827;51.186;6.926;2023-02-14T00:21:28;19.52;48.65
65239;SHT30;51827;51.186;6.926;2023-02-14T00:22:29;19.52;48.67
65239;SHT30;51827;51.186;6.926;2023-02-14T00:23:29;19.53;48.63
65239;SHT30;51827;51.186;6.926;2023-02-14T00:24:29;19.53;48.65
65239;SHT30;51827;51.186;6.926;2023-02-14T00:25:32;19.52;48.62
65239;SHT30;51827;51.186;6.926;2023-02-14T00:26:33;19.52;48.61
65239;SHT30;51827;51.186;6.926;2023-02-14T00:27:33;19.54;48.64
65239;SHT30;51827;51.186;6.926;2023-02-14T00:28:33;19.53;48.61
65239;SHT30;51827;51.186;6.926;2023-02-14T00:29:34;19.53;48.59
65239;SHT30;51827;51.186;6.926;2023-02-14T00:30:34;19.54;48.59
65239;SHT30;51827;51.186;6.926;2023-02-14T00:31:34;19.52;48.58
65239;SHT30;51827;51.186;6.926;2023-02-14T00:32:37;19.53;48.59
65239;SHT30;51827;51.186;6.926;2023-02-14T00:33:37;19.50;48.59
65239;SHT30;51827;51.186;6.926;2023-02-14T00:34:39;19.49;48.58
65239;SHT30;51827;51.186;6.926;2023-02-14T00:35:39;19.52;48.60
65239;SHT30;51827;51.186;6.926;2023-02-14T00:36:40;19.50;48.58
65239;SHT30;51827;51.186;6.926;2023-02-14T00:37:40;19.50;48.58
65239;SHT30;51827;51.186;6.926;2023-02-14T00:38:41;19.50;48.58
65239;SHT30;51827;51.186;6.926;2023-02-14T00:39:41;19.52;48.58
65239;SHT30;51827;51.186;6.926;2023-02-14T00:40:41;19.53;48.51
65239;SHT30;51827;51.186;6.926;2023-02-14T00:41:42;19.53;48.54
65239;SHT30;51827;51.186;6.926;2023-02-14T00:42:42;19.49;48.58
65239;SHT30;51827;51.186;6.926;2023-02-14T00:43:42;19.50;48.57
65239;SHT30;51827;51.186;6.926;2023-02-14T00:44:43;19.52;48.54
65239;SHT30;51827;51.186;6.926;2023-02-14T00:45:43;19.50;48.50
65239;SHT30;51827;51.186;6.926;2023-02-14T00:46:43;19.50;48.49
65239;SHT30;51827;51.186;6.926;2023-02-14T00:47:43;19.50;48.48
65239;SHT30;51827;51.186;6.926;2023-02-14T00:48:44;19.52;48.52
65239;SHT30;51827;51.186;6.926;2023-02-14T00:49:44;19.49;48.50
65239;SHT30;51827;51.186;6.926;2023-02-14T00:50:44;19.49;48.54
65239;SHT30;51827;51.186;6.926;2023-02-14T00:51:45;19.49;48.54
65239;SHT30;51827;51.186;6.926;2023-02-14T00:52:45;19.50;48.54
65239;SHT30;51827;51.186;6.926;2023-02-14T00:53:47;19.50;48.54
65239;SHT30;51827;51.186;6.926;2023-02-14T00:54:47;19.47;48.51
65239;SHT30;51827;51.186;6.926;2023-02-14T00:55:47;19.47;48.47
65239;SHT30;51827;51.186;6.926;2023-02-14T00:56:48;19.49;48.55
65239;SHT30;51827;51.186;6.926;2023-02-14T00:57:48;19.49;48.52
65239;SHT30;51827;51.186;6.926;2023-02-14T00:58:48;19.49;48.53
65239;SHT30;51827;51.186;6.926;2023-02-14T00:59:48;19.46;48.50
65239;SHT30;51827;51.186;6.926;2023-02-14T01:00:49;19.49;48.52
65239;SHT30;51827;51.186;6.926;2023-02-14T01:01:49;19.47;48.49
65239;SHT30;51827;51.186;6.926;2023-02-14T01:02:49;19.46;48.48
65239;SHT30;51827;51.186;6.926;2023-02-14T01:03:49;19.47;48.50
65239;SHT30;51827;51.186;6.926;2023-02-14T01:04:50;19.49;48.48
65239;SHT30;51827;51.186;6.926;2023-02-14T01:05:50;19.49;48.46
65239;SHT30;51827;51.186;6.926;2023-02-14T01:06:50;19.47;48.53
65239;SHT30;51827;51.186;6.926;2023-02-14T01:07:51;19.47;48.50
65239;SHT30;51827;51.186;6.926;2023-02-14T01:08:51;19.45;48.52
65239;SHT30;51827;51.186;6.926;2023-02-14T01:09:51;19.45;48.47
65239;SHT30;51827;51.186;6.926;2023-02-14T01:10:51;19.47;48.47
65239;SHT30;51827;51.186;6.926;2023-02-14T01:11:52;19.47;48.46
65239;SHT30;51827;51.186;6.926;2023-02-14T01:12:52;19.47;48.48
65239;SHT30;51827;51.186;6.926;2023-02-14T01:13:54;19.46;48.44
65239;SHT30;51827;51.186;6.926;2023-02-14T01:14:55;19.46;48.41
65239;SHT30;51827;51.186;6.926;2023-02-14T01:15:55;19.47;48.42
65239;SHT30;51827;51.186;6.926;2023-02-14T01:16:55;19.46;48.46
65239;SHT30;51827;51.186;6.926;2023-02-14T01:17:57;19.45;48.39
65239;SHT30;51827;51.186;6.926;2023-02-14T01:18:59;19.46;48.41
65239;SHT30;51827;51.186;6.926;2023-02-14T01:19:59;19.46;48.41
65239;SHT30;51827;51.186;6.926;2023-02-14T01:22:13;19.45;48.42
65239;SHT30;51827;51.186;6.926;2023-02-14T01:23:13;19.46;48.42
65239;SHT30;51827;51.186;6.926;2023-02-14T01:24:14;19.46;48.38
65239;SHT30;51827;51.186;6.926;2023-02-14T01:25:14;19.43;48.44
65239;SHT30;51827;51.186;6.926;2023-02-14T01:26:15;19.45;48.46
65239;SHT30;51827;51.186;6.926;2023-02-14T01:27:16;19.45;48.40
65239;SHT30;51827;51.186;6.926;2023-02-14T01:28:16;19.45;48.38
65239;SHT30;51827;51.186;6.926;2023-02-14T01:29:16;19.45;48.39
65239;SHT30;51827;51.186;6.926;2023-02-14T01:30:17;19.46;48.42
65239;SHT30;51827;51.186;6.926;2023-02-14T01:31:20;19.45;48.40
65239;SHT30;51827;51.186;6.926;2023-02-14T01:32:20;19.45;48.42
65239;SHT30;51827;51.186;6.926;2023-02-14T01:33:21;19.45;48.42
65239;SHT30;51827;51.186;6.926;2023-02-14T01:34:21;19.46;48.35
65239;SHT30;51827;51.186;6.926;2023-02-14T01:35:23;19.45;48.35
65239;SHT30;51827;51.186;6.926;2023-02-14T01:36:32;19.43;48.37
65239;SHT30;51827;51.186;6.926;2023-02-14T01:37:34;19.45;48.36
65239;SHT30;51827;51.186;6.926;2023-02-14T01:38:34;19.46;48.37
65239;SHT30;51827;51.186;6.926;2023-02-14T01:39:34;19.45;48.32
65239;SHT30;51827;51.186;6.926;2023-02-14T01:40:41;19.45;48.31
65239;SHT30;51827;51.186;6.926;2023-02-14T01:41:43;19.46;48.35
65239;SHT30;51827;51.186;6.926;2023-02-14T01:42:44;19.46;48.30
65239;SHT30;51827;51.186;6.926;2023-02-14T01:44:05;19.46;48.27
65239;SHT30;51827;51.186;6.926;2023-02-14T01:45:16;19.45;48.30
65239;SHT30;51827;51.186;6.926;2023-02-14T01:46:17;19.45;48.27
65239;SHT30;51827;51.186;6.926;2023-02-14T01:47:17;19.46;48.26
65239;SHT30;51827;51.186;6.926;2023-02-14T01:48:19;19.45;48.28
65239;SHT30;51827;51.186;6.926;2023-02-14T01:49:24;19.43;48.26
65239;SHT30;51827;51.186;6.926;2023-02-14T01:50:31;19.45;48.28
65239;SHT30;51827;51.186;6.926;2023-02-14T01:51:34;19.43;48.26
65239;SHT30;51827;51.186;6.926;2023-02-14T01:52:57;19.43;48.28
65239;SHT30;51827;51.186;6.926;2023-02-14T01:53:59;19.47;48.27
65239;SHT30;51827;51.186;6.926;2023-02-14T01:55:08;19.42;48.26
65239;SHT30;51827;51.186;6.926;2023-02-14T01:56:12;19.43;48.23
65239;SHT30;51827;51.186;6.926;2023-02-14T01:57:14;19.43;48.21
65239;SHT30;51827;51.186;6.926;2023-02-14T01:58:19;19.43;48.21
65239;SHT30;51827;51.186;6.926;2023-02-14T01:59:24;19.43;48.25
65239;SHT30;51827;51.186;6.926;2023-02-14T02:00:26;19.43;48.21
65239;SHT30;51827;51.186;6.926;2023-02-14T02:01:28;19.40;48.23
65239;SHT30;51827;51.186;6.926;2023-02-14T02:02:29;19.43;48.21
65239;SHT30;51827;51.186;6.926;2023-02-14T02:03:38;19.42;48.20
65239;SHT30;51827;51.186;6.926;2023-02-14T02:04:43;19.43;48.21
65239;SHT30;51827;51.186;6.926;2023-02-14T02:05:47;19.43;48.23
65239;SHT30;51827;51.186;6.926;2023-02-14T02:07:11;19.42;48.23
65239;SHT30;51827;51.186;6.926;2023-02-14T02:08:13;19.42;48.15
65239;SHT30;51827;51.186;6.926;2023-02-14T02:09:17;19.42;48.14
65239;SHT30;51827;51.186;6.926;2023-02-14T02:10:19;19.43;48.16
65239;SHT30;51827;51.186;6.926;2023-02-14T02:11:19;19.42;48.14
65239;SHT30;51827;51.186;6.926;2023-02-14T02:12:20;19.42;48.14
65239;SHT30;51827;51.186;6.926;2023-02-14T02:13:21;19.40;48.17
65239;SHT30;51827;51.186;6.926;2023-02-14T02:14:22;19.42;48.12
65239;SHT30;51827;51.186;6.926;2023-02-14T02:15:25;19.43;48.15
65239;SHT30;51827;51.186;6.926;2023-02-14T02:20:50;19.42;48.09
65239;SHT30;51827;51.186;6.926;2023-02-14T02:25:45;19.42;48.08
65239;SHT30;51827;51.186;6.926;2023-02-14T02:31:28;19.39;48.04
65239;SHT30;51827;51.186;6.926;2023-02-14T02:34:11;19.37;48.04
65239;SHT30;51827;51.186;6.926;2023-02-14T02:38:56;19.36;48.07
65239;SHT30;51827;51.186;6.926;2023-02-14T02:40:19;19.36;48.07
65239;SHT30;51827;51.186;6.926;2023-02-14T02:45:23;19.37;47.98
65239;SHT30;51827;51.186;6.926;2023-02-14T02:46:39;19.37;48.01
65239;SHT30;51827;51.186;6.926;2023-02-14T02:47:41;19.36;48.00
65239;SHT30;51827;51.186;6.926;2023-02-14T02:48:57;19.34;48.01
65239;SHT30;51827;51.186;6.926;2023-02-14T02:50:25;19.34;48.00
65239;SHT30;51827;51.186;6.926;2023-02-14T02:51:53;19.33;48.01
65239;SHT30;51827;51.186;6.926;2023-02-14T02:53:12;19.36;47.97
65239;SHT30;51827;51.186;6.926;2023-02-14T02:54:43;19.33;47.97
65239;SHT30;51827;51.186;6.926;2023-02-14T02:55:57;19.34;47.96
65239;SHT30;51827;51.186;6.926;2023-02-14T02:57:00;19.34;47.97
65239;SHT30;51827;51.186;6.926;2023-02-14T02:58:02;19.34;47.95
65239;SHT30;51827;51.186;6.926;2023-02-14T02:59:05;19.33;47.96
65239;SHT30;51827;51.186;6.926;2023-02-14T03:00:09;19.33;47.95
65239;SHT30;51827;51.186;6.926;2023-02-14T03:01:13;19.36;47.94
65239;SHT30;51827;51.186;6.926;2023-02-14T03:02:19;19.36;47.90
65239;SHT30;51827;51.186;6.926;2023-02-14T03:03:22;19.33;47.88
65239;SHT30;51827;51.186;6.926;2023-02-14T03:04:24;19.34;47.90
65239;SHT30;51827;51.186;6.926;2023-02-14T03:05:27;19.34;47.91
65239;SHT30;51827;51.186;6.926;2023-02-14T03:06:31;19.34;47.91
65239;SHT30;51827;51.186;6.926;2023-02-14T03:08:34;19.34;47.88
65239;SHT30;51827;51.186;6.926;2023-02-14T03:10:37;19.34;47.84
65239;SHT30;51827;51.186;6.926;2023-02-14T03:11:48;19.36;47.84
65239;SHT30;51827;51.186;6.926;2023-02-14T03:13:11;19.33;47.83
65239;SHT30;51827;51.186;6.926;2023-02-14T03:14:19;19.34;47.83
65239;SHT30;51827;51.186;6.926;2023-02-14T03:16:32;19.33;47.85
65239;SHT30;51827;51.186;6.926;2023-02-14T03:18:18;19.37;47.79
65239;SHT30;51827;51.186;6.926;2023-02-14T03:19:16;19.32;47.84
65239;SHT30;51827;51.186;6.926;2023-02-14T03:20:22;19.33;47.80
65239;SHT30;51827;51.186;6.926;2023-02-14T03:22:51;19.32;47.77
65239;SHT30;51827;51.186;6.926;2023-02-14T03:24:04;19.29;47.84
65239;SHT30;51827;51.186;6.926;2023-02-14T03:27:03;19.33;47.78
65239;SHT30;51827;51.186;6.926;2023-02-14T03:28:16;19.32;47.81
65239;SHT30;51827;51.186;6.926;2023-02-14T03:32:38;19.33;47.82
65239;SHT30;51827;51.186;6.926;2023-02-14T03:34:00;19.30;47.75
65239;SHT30;51827;51.186;6.926;2023-02-14T03:35:10;19.32;47.75
65239;SHT30;51827;51.186;6.926;2023-02-14T03:36:38;19.30;47.74
65239;SHT30;51827;51.186;6.926;2023-02-14T03:38:46;19.30;47.73
65239;SHT30;51827;51.186;6.926;2023-02-14T03:41:09;19.30;47.73
65239;SHT30;51827;51.186;6.926;2023-02-14T03:42:24;19.29;47.68
65239;SHT30;51827;51.186;6.926;2023-02-14T03:43:30;19.30;47.69
65239;SHT30;51827;51.186;6.926;2023-02-14T03:44:33;19.33;47.74
65239;SHT30;51827;51.186;6.926;2023-02-14T03:45:48;19.30;47.71
65239;SHT30;51827;51.186;6.926;2023-02-14T03:46:52;19.30;47.68
65239;SHT30;51827;51.186;6.926;2023-02-14T03:47:57;19.30;47.68
65239;SHT30;51827;51.186;6.926;2023-02-14T03:49:03;19.29;47.67
65239;SHT30;51827;51.186;6.926;2023-02-14T03:50:17;19.29;47.65
65239;SHT30;51827;51.186;6.926;2023-02-14T03:51:19;19.32;47.66
65239;SHT30;51827;51.186;6.926;2023-02-14T03:52:20;19.30;47.68
65239;SHT30;51827;51.186;6.926;2023-02-14T03:53:25;19.29;47.68
65239;SHT30;51827;51.186;6.926;2023-02-14T03:54:27;19.29;47.72
65239;SHT30;51827;51.186;6.926;2023-02-14T03:56:02;19.32;47.67
65239;SHT30;51827;51.186;6.926;2023-02-14T03:57:14;19.32;47.62
65239;SHT30;51827;51.186;6.926;2023-02-14T03:58:22;19.29;47.65
65239;SHT30;51827;51.186;6.926;2023-02-14T03:59:25;19.29;47.67
65239;SHT30;51827;51.186;6.926;2023-02-14T04:00:27;19.30;47.62
65239;SHT30;51827;51.186;6.926;2023-02-14T04:01:33;19.29;47.63
65239;SHT30;51827;51.186;6.926;2023-02-14T04:02:38;19.29;47.60
65239;SHT30;51827;51.186;6.926;2023-02-14T04:03:40;19.29;47.61
65239;SHT30;51827;51.186;6.926;2023-02-14T04:04:44;19.27;47.63
65239;SHT30;51827;51.186;6.926;2023-02-14T04:05:45;19.29;47.55
65239;SHT30;51827;51.186;6.926;2023-02-14T04:06:46;19.30;47.62
65239;SHT30;51827;51.186;6.926;2023-02-14T04:07:50;19.29;47.60
65239;SHT30;51827;51.186;6.926;2023-02-14T04:08:50;19.27;47.64
65239;SHT30;51827;51.186;6.926;2023-02-14T04:09:51;19.29;47.61
65239;SHT30;51827;51.186;6.926;2023-02-14T04:10:52;19.29;47.61
65239;SHT30;51827;51.186;6.926;2023-02-14T04:11:53;19.29;47.57
65239;SHT30;51827;51.186;6.926;2023-02-14T04:12:53;19.27;47.55
65239;SHT30;51827;51.186;6.926;2023-02-14T04:13:53;19.29;47.55
65239;SHT30;51827;51.186;6.926;2023-02-14T04:14:54;19.30;47.52
65239;SHT30;51827;51.186;6.926;2023-02-14T04:15:54;19.29;47.52
65239;SHT30;51827;51.186;6.926;2023-02-14T04:16:54;19.33;47.48
65239;SHT30;51827;51.186;6.926;2023-02-14T04:17:55;19.29;47.51
65239;SHT30;51827;51.186;6.926;2023-02-14T04:18:55;19.30;47.51
65239;SHT30;51827;51.186;6.926;2023-02-14T04:19:55;19.27;47.59
65239;SHT30;51827;51.186;6.926;2023-02-14T04:20:55;19.27;47.58
65239;SHT30;51827;51.186;6.926;2023-02-14T04:21:56;19.27;47.60
65239;SHT30;51827;51.186;6.926;2023-02-14T04:22:56;19.27;47.56
65239;SHT30;51827;51.186;6.926;2023-02-14T04:23:56;19.26;47.55
65239;SHT30;51827;51.186;6.926;2023-02-14T04:24:56;19.27;47.53
65239;SHT30;51827;51.186;6.926;2023-02-14T04:25:57;19.30;47.48
65239;SHT30;51827;51.186;6.926;2023-02-14T04:26:57;19.26;47.54
65239;SHT30;51827;51.186;6.926;2023-02-14T04:27:57;19.26;47.56
65239;SHT30;51827;51.186;6.926;2023-02-14T04:28:57;19.24;47.51
65239;SHT30;51827;51.186;6.926;2023-02-14T04:29:58;19.26;47.53
65239;SHT30;51827;51.186;6.926;2023-02-14T04:31:04;19.24;47.51
65239;SHT30;51827;51.186;6.926;2023-02-14T04:32:07;19.26;47.48
65239;SHT30;51827;51.186;6.926;2023-02-14T04:33:07;19.29;47.54
65239;SHT30;51827;51.186;6.926;2023-02-14T04:34:08;19.26;47.57
65239;SHT30;51827;51.186;6.926;2023-02-14T04:35:08;19.26;47.55
65239;SHT30;51827;51.186;6.926;2023-02-14T04:36:08;19.27;47.56
65239;SHT30;51827;51.186;6.926;2023-02-14T04:37:09;19.26;47.63
65239;SHT30;51827;51.186;6.926;2023-02-14T04:38:10;19.24;47.63
65239;SHT30;51827;51.186;6.926;2023-02-14T04:39:10;19.24;47.62
65239;SHT30;51827;51.186;6.926;2023-02-14T04:40:11;19.29;47.63
65239;SHT30;51827;51.186;6.926;2023-02-14T04:41:11;19.26;47.59
65239;SHT30;51827;51.186;6.926;2023-02-14T04:42:11;19.27;47.59
65239;SHT30;51827;51.186;6.926;2023-02-14T04:43:12;19.30;47.58
65239;SHT30;51827;51.186;6.926;2023-02-14T04:44:12;19.26;47.63
65239;SHT30;51827;51.186;6.926;2023-02-14T04:45:12;19.26;47.64
65239;SHT30;51827;51.186;6.926;2023-02-14T04:46:13;19.26;47.66
65239;SHT30;51827;51.186;6.926;2023-02-14T04:47:13;19.26;47.67
65239;SHT30;51827;51.186;6.926;2023-02-14T04:48:14;19.26;47.75
65239;SHT30;51827;51.186;6.926;2023-02-14T04:49:14;19.27;47.75
65239;SHT30;51827;51.186;6.926;2023-02-14T04:50:14;19.26;47.81
65239;SHT30;51827;51.186;6.926;2023-02-14T04:51:15;19.27;47.76
65239;SHT30;51827;51.186;6.926;2023-02-14T04:52:15;19.27;47.76
65239;SHT30;51827;51.186;6.926;2023-02-14T04:53:15;19.26;47.78
65239;SHT30;51827;51.186;6.926;2023-02-14T04:54:15;19.24;47.74
65239;SHT30;51827;51.186;6.926;2023-02-14T04:55:16;19.26;47.77
65239;SHT30;51827;51.186;6.926;2023-02-14T04:56:16;19.27;47.74
65239;SHT30;51827;51.186;6.926;2023-02-14T04:57:17;19.29;47.70
65239;SHT30;51827;51.186;6.926;2023-02-14T04:58:17;19.24;47.72
65239;SHT30;51827;51.186;6.926;2023-02-14T04:59:17;19.26;47.72
65239;SHT30;51827;51.186;6.926;2023-02-14T05:00:18;19.26;47.76
65239;SHT30;51827;51.186;6.926;2023-02-14T05:01:18;19.26;47.77
65239;SHT30;51827;51.186;6.926;2023-02-14T05:02:18;19.24;47.77
65239;SHT30;51827;51.186;6.926;2023-02-14T05:03:19;19.24;47.74
65239;SHT30;51827;51.186;6.926;2023-02-14T05:04:19;19.24;47.78
65239;SHT30;51827;51.186;6.926;2023-02-14T05:05:19;19.26;47.76
65239;SHT30;51827;51.186;6.926;2023-02-14T05:06:20;19.24;47.72
65239;SHT30;51827;51.186;6.926;2023-02-14T05:07:20;19.24;47.76
65239;SHT30;51827;51.186;6.926;2023-02-14T05:08:20;19.22;47.71
65239;SHT30;51827;51.186;6.926;2023-02-14T05:09:20;19.24;47.72
65239;SHT30;51827;51.186;6.926;2023-02-14T05:10:21;19.26;47.66
65239;SHT30;51827;51.186;6.926;2023-02-14T05:11:22;19.24;47.67
65239;SHT30;51827;51.186;6.926;2023-02-14T05:12:22;19.27;47.64
65239;SHT30;51827;51.186;6.926;2023-02-14T05:13:22;19.23;47.56
65239;SHT30;51827;51.186;6.926;2023-02-14T05:14:23;19.24;47.56
65239;SHT30;51827;51.186;6.926;2023-02-14T05:15:23;19.24;47.56
65239;SHT30;51827;51.186;6.926;2023-02-14T05:16:23;19.20;47.59
65239;SHT30;51827;51.186;6.926;2023-02-14T05:17:24;19.20;47.60
65239;SHT30;51827;51.186;6.926;2023-02-14T05:18:25;19.19;47.62
65239;SHT30;51827;51.186;6.926;2023-02-14T05:19:25;19.16;47.69
65239;SHT30;51827;51.186;6.926;2023-02-14T05:20:29;19.19;47.70
65239;SHT30;51827;51.186;6.926;2023-02-14T05:21:30;19.16;47.51
65239;SHT30;51827;51.186;6.926;2023-02-14T05:22:30;19.19;47.51
65239;SHT30;51827;51.186;6.926;2023-02-14T05:23:30;19.19;47.54
65239;SHT30;51827;51.186;6.926;2023-02-14T05:24:31;19.22;47.56
65239;SHT30;51827;51.186;6.926;2023-02-14T05:25:31;19.19;47.50
65239;SHT30;51827;51.186;6.926;2023-02-14T05:26:31;19.22;47.49
65239;SHT30;51827;51.186;6.926;2023-02-14T05:27:32;19.20;47.43
65239;SHT30;51827;51.186;6.926;2023-02-14T05:28:32;19.19;47.29
65239;SHT30;51827;51.186;6.926;2023-02-14T05:29:32;19.20;47.16
65239;SHT30;51827;51.186;6.926;2023-02-14T05:30:33;19.20;47.14
65239;SHT30;51827;51.186;6.926;2023-02-14T05:31:33;19.19;47.16
65239;SHT30;51827;51.186;6.926;2023-02-14T05:32:33;19.18;47.10
65239;SHT30;51827;51.186;6.926;2023-02-14T05:33:34;19.18;47.01
65239;SHT30;51827;51.186;6.926;2023-02-14T05:34:34;19.19;46.90
65239;SHT30;51827;51.186;6.926;2023-02-14T05:35:35;19.20;46.88
65239;SHT30;51827;51.186;6.926;2023-02-14T05:36:35;19.19;46.90
65239;SHT30;51827;51.186;6.926;2023-02-14T05:37:35;19.18;46.90
65239;SHT30;51827;51.186;6.926;2023-02-14T05:38:36;19.18;46.80
65239;SHT30;51827;51.186;6.926;2023-02-14T05:39:36;19.19;46.83
65239;SHT30;51827;51.186;6.926;2023-02-14T05:40:36;19.16;46.83
65239;SHT30;51827;51.186;6.926;2023-02-14T05:41:37;19.18;46.89
65239;SHT30;51827;51.186;6.926;2023-02-14T05:42:37;19.18;46.77
65239;SHT30;51827;51.186;6.926;2023-02-14T05:43:37;19.19;46.75
65239;SHT30;51827;51.186;6.926;2023-02-14T05:44:38;19.15;46.78
65239;SHT30;51827;51.186;6.926;2023-02-14T05:45:38;19.19;46.80
65239;SHT30;51827;51.186;6.926;2023-02-14T05:46:38;19.19;46.79
65239;SHT30;51827;51.186;6.926;2023-02-14T05:47:38;19.20;46.82
65239;SHT30;51827;51.186;6.926;2023-02-14T05:48:39;19.19;46.68
65239;SHT30;51827;51.186;6.926;2023-02-14T05:49:39;19.18;46.73
65239;SHT30;51827;51.186;6.926;2023-02-14T05:50:39;19.18;46.79
65239;SHT30;51827;51.186;6.926;2023-02-14T05:51:40;19.15;46.82
65239;SHT30;51827;51.186;6.926;2023-02-14T05:52:40;19.18;46.85
65239;SHT30;51827;51.186;6.926;2023-02-14T05:53:40;19.16;46.78
65239;SHT30;51827;51.186;6.926;2023-02-14T05:54:41;19.18;46.78
65239;SHT30;51827;51.186;6.926;2023-02-14T05:55:41;19.16;46.77
65239;SHT30;51827;51.186;6.926;2023-02-14T05:56:41;19.19;46.72
65239;SHT30;51827;51.186;6.926;2023-02-14T05:57:42;19.18;46.73
65239;SHT30;51827;51.186;6.926;2023-02-14T05:58:42;19.16;46.77
65239;SHT30;51827;51.186;6.926;2023-02-14T05:59:42;19.19;46.73
65239;SHT30;51827;51.186;6.926;2023-02-14T06:00:43;19.18;46.74
65239;SHT30;51827;51.186;6.926;2023-02-14T06:01:43;19.16;46.80
65239;SHT30;51827;51.186;6.926;2023-02-14T06:02:43;19.18;46.74
65239;SHT30;51827;51.186;6.926;2023-02-14T06:03:43;19.20;46.74
65239;SHT30;51827;51.186;6.926;2023-02-14T06:04:44;19.16;46.75
65239;SHT30;51827;51.186;6.926;2023-02-14T06:05:44;19.18;46.82
65239;SHT30;51827;51.186;6.926;2023-02-14T06:06:44;19.16;46.74
65239;SHT30;51827;51.186;6.926;2023-02-14T06:07:47;19.16;46.78
65239;SHT30;51827;51.186;6.926;2023-02-14T06:08:47;19.19;46.78
65239;SHT30;51827;51.186;6.926;2023-02-14T06:09:48;19.15;46.74
65239;SHT30;51827;51.186;6.926;2023-02-14T06:10:48;19.18;46.77
65239;SHT30;51827;51.186;6.926;2023-02-14T06:11:48;19.16;46.80
65239;SHT30;51827;51.186;6.926;2023-02-14T06:12:50;19.18;46.73
65239;SHT30;51827;51.186;6.926;2023-02-14T06:13:50;19.15;46.73
65239;SHT30;51827;51.186;6.926;2023-02-14T06:14:50;19.15;46.81
65239;SHT30;51827;51.186;6.926;2023-02-14T06:15:51;19.15;46.85
65239;SHT30;51827;51.186;6.926;2023-02-14T06:16:51;19.18;46.82
65239;SHT30;51827;51.186;6.926;2023-02-14T06:17:56;19.16;46.79
65239;SHT30;51827;51.186;6.926;2023-02-14T06:18:56;19.19;46.75
65239;SHT30;51827;51.186;6.926;2023-02-14T06:19:56;19.15;46.79
65239;SHT30;51827;51.186;6.926;2023-02-14T06:20:56;19.16;46.87
65239;SHT30;51827;51.186;6.926;2023-02-14T06:21:57;19.16;46.81
65239;SHT30;51827;51.186;6.926;2023-02-14T06:22:57;19.18;46.75
65239;SHT30;51827;51.186;6.926;2023-02-14T06:23:57;19.19;46.80
65239;SHT30;51827;51.186;6.926;2023-02-14T06:24:58;19.16;46.78
65239;SHT30;51827;51.186;6.926;2023-02-14T06:25:58;19.18;46.78
65239;SHT30;51827;51.186;6.926;2023-02-14T06:26:58;19.19;46.78
65239;SHT30;51827;51.186;6.926;2023-02-14T06:27:59;19.16;46.73
65239;SHT30;51827;51.186;6.926;2023-02-14T06:28:59;19.18;46.78
65239;SHT30;51827;51.186;6.926;2023-02-14T06:29:59;19.16;46.81
65239;SHT30;51827;51.186;6.926;2023-02-14T06:31:00;19.16;46.76
65239;SHT30;51827;51.186;6.926;2023-02-14T06:32:00;19.15;46.77
65239;SHT30;51827;51.186;6.926;2023-02-14T06:33:00;19.15;46.85
65239;SHT30;51827;51.186;6.926;2023-02-14T06:34:01;19.13;46.81
65239;SHT30;51827;51.186;6.926;2023-02-14T06:35:01;19.15;46.77
65239;SHT30;51827;51.186;6.926;2023-02-14T06:36:01;19.19;46.83
65239;SHT30;51827;51.186;6.926;2023-02-14T06:37:01;19.16;46.80
65239;SHT30;51827;51.186;6.926;2023-02-14T06:38:02;19.18;46.77
65239;SHT30;51827;51.186;6.926;2023-02-14T06:39:03;19.16;46.71
65239;SHT30;51827;51.186;6.926;2023-02-14T06:40:03;19.18;46.75
65239;SHT30;51827;51.186;6.926;2023-02-14T06:41:05;19.19;46.81
65239;SHT30;51827;51.186;6.926;2023-02-14T06:42:06;19.15;46.73
65239;SHT30;51827;51.186;6.926;2023-02-14T06:43:06;19.18;46.75
65239;SHT30;51827;51.186;6.926;2023-02-14T06:44:06;19.19;46.76
65239;SHT30;51827;51.186;6.926;2023-02-14T06:45:07;19.16;46.83
65239;SHT30;51827;51.186;6.926;2023-02-14T06:46:07;19.19;46.78
65239;SHT30;51827;51.186;6.926;2023-02-14T06:47:08;19.18;46.77
65239;SHT30;51827;51.186;6.926;2023-02-14T06:48:08;19.15;46.78
65239;SHT30;51827;51.186;6.926;2023-02-14T06:49:09;19.18;46.74
65239;SHT30;51827;51.186;6.926;2023-02-14T06:50:09;19.19;46.75
65239;SHT30;51827;51.186;6.926;2023-02-14T06:51:10;19.16;46.75
65239;SHT30;51827;51.186;6.926;2023-02-14T06:52:10;19.15;46.82
65239;SHT30;51827;51.186;6.926;2023-02-14T06:53:11;19.18;46.79
65239;SHT30;51827;51.186;6.926;2023-02-14T06:54:11;19.16;46.78
65239;SHT30;51827;51.186;6.926;2023-02-14T06:55:11;19.18;46.74
65239;SHT30;51827;51.186;6.926;2023-02-14T06:56:11;19.18;46.75
65239;SHT30;51827;51.186;6.926;2023-02-14T06:57:12;19.19;46.84
65239;SHT30;51827;51.186;6.926;2023-02-14T06:58:12;19.16;46.77
65239;SHT30;51827;51.186;6.926;2023-02-14T06:59:13;19.16;46.80
65239;SHT30;51827;51.186;6.926;2023-02-14T07:00:13;19.15;46.74
65239;SHT30;51827;51.186;6.926;2023-02-14T07:01:13;19.15;46.78
65239;SHT30;51827;51.186;6.926;2023-02-14T07:02:14;19.16;46.76
65239;SHT30;51827;51.186;6.926;2023-02-14T07:03:14;19.15;46.80
65239;SHT30;51827;51.186;6.926;2023-02-14T07:04:15;19.16;46.83
65239;SHT30;51827;51.186;6.926;2023-02-14T07:05:15;19.16;46.74
65239;SHT30;51827;51.186;6.926;2023-02-14T07:06:15;19.16;46.73
65239;SHT30;51827;51.186;6.926;2023-02-14T07:07:15;19.16;46.75
65239;SHT30;51827;51.186;6.926;2023-02-14T07:08:16;19.16;46.75
65239;SHT30;51827;51.186;6.926;2023-02-14T07:09:16;19.16;46.72